New Liulinhai — H8MH — position and weather

sailwx.info

Track history (hours):
 
Tides and Currents Weather Stations Pressure Air Temp Water Temp Dewpoint Dewpoint Depression Visibility Wind Speed Wind Dir Waves Ship Positions

New Liulinhai

Last reported at 2017-Dec-12 05:40 UTC. Time now 2018-Jan-23 04:28 UTC.
Position N 30°56' E 032°19'.
Warning: this ship's position is 41 days out of date.

Length 190 m; draft 12.6 m.

Type: Cargo ship. MMSI: 351700000.

Date/timePositionNaut miles runAvg speedWind from/ knotsBaromVisibWave heightAir tempDewpointWater temp
2017-Dec-12 05:40N 30°56' E 032°19'3 9.0
2017-Dec-12 05:21N 30°59' E 032°19'4 8.9
2017-Dec-12 04:57N 31°03' E 032°19'9 9.7
2017-Dec-12 04:03N 31°11' E 032°20'1 9.4
2017-Dec-12 03:59N 31°12' E 032°20'5 7.6
2017-Dec-12 03:21N 31°17' E 032°22'310.4
2017-Dec-12 03:01N 31°20' E 032°23'  
2017-Dec-08 19:11N 35°52' E 014°46'0 0.1
2017-Dec-08 18:55N 35°52' E 014°46'0 0.0
2017-Dec-08 18:20N 35°52' E 014°46'0 0.0
2017-Dec-08 17:59N 35°52' E 014°46'0 0.0
2017-Dec-08 17:28N 35°52' E 014°46'0 0.0
2017-Dec-08 16:52N 35°52' E 014°46'0 0.0
2017-Dec-08 16:28N 35°52' E 014°46'0 0.0
2017-Dec-08 15:58N 35°52' E 014°46'0 0.0
2017-Dec-08 15:08N 35°52' E 014°46'0 0.0
2017-Dec-08 14:55N 35°52' E 014°46'0 0.0
2017-Dec-08 14:23N 35°52' E 014°46'0 0.1
2017-Dec-08 13:56N 35°52' E 014°46'0 0.1
2017-Dec-08 13:28N 35°52' E 014°46'0 0.1
2017-Dec-08 11:42N 35°52' E 014°46'1 5.9
2017-Dec-08 11:30N 35°52' E 014°47'5 9.9
2017-Dec-08 11:00N 35°54' E 014°52'0 0.7
2017-Dec-08 10:28N 35°55' E 014°52'0 0.0
2017-Dec-08 07:52N 35°55' E 014°52'0 0.0
2017-Dec-08 07:04N 35°55' E 014°52'0 0.0
2017-Dec-08 06:58N 35°55' E 014°52'0 0.0
2017-Dec-08 06:28N 35°55' E 014°52'0 0.1
2017-Dec-08 05:01N 35°55' E 014°52'0 0.8
2017-Dec-08 04:59N 35°55' E 014°52'2 3.9
2017-Dec-08 04:26N 35°57' E 014°53'512.1
2017-Dec-08 04:00N 36°01' E 014°48'6 7.2
2017-Dec-08 03:09N 36°05' E 014°43'1 4.4
2017-Dec-08 02:59N 36°05' E 014°42'4 8.7
2017-Dec-08 02:30N 36°06' E 014°37'712.8
2017-Dec-08 02:00N 36°08' E 014°29'612.7
2017-Dec-08 01:30N 36°10' E 014°22'612.8
2017-Dec-08 01:00N 36°12' E 014°14'713.0
2017-Dec-08 00:30N 36°14' E 014°06'713.0
2017-Dec-07 23:58N 36°17' E 013°59'612.5
2017-Dec-07 23:30N 36°19' E 013°52'712.8
2017-Dec-07 22:59N 36°22' E 013°45'612.9
2017-Dec-07 22:30N 36°25' E 013°38'  
2017-Dec-03 19:21N 38°25' W 010°01'412.5
2017-Dec-03 19:00N 38°29' W 010°02'612.6
2017-Dec-03 18:30N 38°35' W 010°04'812.5
2017-Dec-03 17:52N 38°43' W 010°06'512.4
2017-Dec-03 17:30N 38°47' W 010°06'713.2
2017-Dec-03 17:00N 38°54' W 010°06'713.5
2017-Dec-03 16:31N 39°01' W 010°06'713.0
2017-Dec-03 16:00N 39°07' W 010°06'612.7
2017-Dec-03 15:31N 39°14' W 010°06'  
Track history (hours):
 
Tides and Currents Weather Stations Pressure Air Temp Water Temp Dewpoint Dewpoint Depression Visibility Wind Speed Wind Dir Waves Ship Positions

New Liulinhai

Last reported at 2017-Dec-12 05:40 UTC. Time now 2018-Jan-23 04:28 UTC.
Position N 30°56' E 032°19'.
Warning: this ship's position is 41 days out of date.

Length 190 m; draft 12.6 m.

Type: Cargo ship. MMSI: 351700000.

Date/timePositionNaut miles runAvg speedWind from/ knotsBaromVisibWave heightAir tempDewpointWater temp
2017-Dec-12 05:40N 30°56' E 032°19'3 9.0
2017-Dec-12 05:21N 30°59' E 032°19'4 8.9
2017-Dec-12 04:57N 31°03' E 032°19'9 9.7
2017-Dec-12 04:03N 31°11' E 032°20'1 9.4
2017-Dec-12 03:59N 31°12' E 032°20'5 7.6
2017-Dec-12 03:21N 31°17' E 032°22'310.4
2017-Dec-12 03:01N 31°20' E 032°23'  
2017-Dec-08 19:11N 35°52' E 014°46'0 0.1
2017-Dec-08 18:55N 35°52' E 014°46'0 0.0
2017-Dec-08 18:20N 35°52' E 014°46'0 0.0
2017-Dec-08 17:59N 35°52' E 014°46'0 0.0
2017-Dec-08 17:28N 35°52' E 014°46'0 0.0
2017-Dec-08 16:52N 35°52' E 014°46'0 0.0
2017-Dec-08 16:28N 35°52' E 014°46'0 0.0
2017-Dec-08 15:58N 35°52' E 014°46'0 0.0
2017-Dec-08 15:08N 35°52' E 014°46'0 0.0
2017-Dec-08 14:55N 35°52' E 014°46'0 0.0
2017-Dec-08 14:23N 35°52' E 014°46'0 0.1
2017-Dec-08 13:56N 35°52' E 014°46'0 0.1
2017-Dec-08 13:28N 35°52' E 014°46'0 0.1
2017-Dec-08 11:42N 35°52' E 014°46'1 5.9
2017-Dec-08 11:30N 35°52' E 014°47'5 9.9
2017-Dec-08 11:00N 35°54' E 014°52'0 0.7
2017-Dec-08 10:28N 35°55' E 014°52'0 0.0
2017-Dec-08 07:52N 35°55' E 014°52'0 0.0
2017-Dec-08 07:04N 35°55' E 014°52'0 0.0
2017-Dec-08 06:58N 35°55' E 014°52'0 0.0
2017-Dec-08 06:28N 35°55' E 014°52'0 0.1
2017-Dec-08 05:01N 35°55' E 014°52'0 0.8
2017-Dec-08 04:59N 35°55' E 014°52'2 3.9
2017-Dec-08 04:26N 35°57' E 014°53'512.1
2017-Dec-08 04:00N 36°01' E 014°48'6 7.2
2017-Dec-08 03:09N 36°05' E 014°43'1 4.4
2017-Dec-08 02:59N 36°05' E 014°42'4 8.7
2017-Dec-08 02:30N 36°06' E 014°37'712.8
2017-Dec-08 02:00N 36°08' E 014°29'612.7
2017-Dec-08 01:30N 36°10' E 014°22'612.8
2017-Dec-08 01:00N 36°12' E 014°14'713.0
2017-Dec-08 00:30N 36°14' E 014°06'713.0
2017-Dec-07 23:58N 36°17' E 013°59'612.5
2017-Dec-07 23:30N 36°19' E 013°52'712.8
2017-Dec-07 22:59N 36°22' E 013°45'612.9
2017-Dec-07 22:30N 36°25' E 013°38'  
2017-Dec-03 19:21N 38°25' W 010°01'412.5
2017-Dec-03 19:00N 38°29' W 010°02'612.6
2017-Dec-03 18:30N 38°35' W 010°04'812.5
2017-Dec-03 17:52N 38°43' W 010°06'512.4
2017-Dec-03 17:30N 38°47' W 010°06'713.2
2017-Dec-03 17:00N 38°54' W 010°06'713.5
2017-Dec-03 16:31N 39°01' W 010°06'713.0
2017-Dec-03 16:00N 39°07' W 010°06'612.7
2017-Dec-03 15:31N 39°14' W 010°06'  

Dump ship's entire track history